sensor_id;sensor_type;location;lat;lon;timestamp;P1;P2;P0
40371;PMS5003;28564;53.346;-6.554;2023-04-15T00:02:13;4;2;
40371;PMS5003;28564;53.346;-6.554;2023-04-15T00:04:41;5;3;
40371;PMS5003;28564;53.346;-6.554;2023-04-15T00:07:09;5;3;
40371;PMS5003;28564;53.346;-6.554;2023-04-15T00:09:36;4;3;
40371;PMS5003;28564;53.346;-6.554;2023-04-15T00:12:03;2;2;
40371;PMS5003;28564;53.346;-6.554;2023-04-15T00:14:30;2;2;
40371;PMS5003;28564;53.346;-6.554;2023-04-15T00:16:59;5;3;
40371;PMS5003;28564;53.346;-6.554;2023-04-15T00:19:26;4;3;
40371;PMS5003;28564;53.346;-6.554;2023-04-15T00:21:53;4;4;
40371;PMS5003;28564;53.346;-6.554;2023-04-15T00:24:21;3;3;
40371;PMS5003;28564;53.346;-6.554;2023-04-15T00:26:48;5;5;
40371;PMS5003;28564;53.346;-6.554;2023-04-15T00:29:15;4;2;
40371;PMS5003;28564;53.346;-6.554;2023-04-15T00:31:43;5;5;
40371;PMS5003;28564;53.346;-6.554;2023-04-15T00:34:10;5;5;
40371;PMS5003;28564;53.346;-6.554;2023-04-15T00:36:38;5;3;
40371;PMS5003;28564;53.346;-6.554;2023-04-15T00:39:05;4;4;
40371;PMS5003;28564;53.346;-6.554;2023-04-15T00:41:32;3;3;
40371;PMS5003;28564;53.346;-6.554;2023-04-15T00:44:00;4;3;
40371;PMS5003;28564;53.346;-6.554;2023-04-15T00:46:27;2;2;
40371;PMS5003;28564;53.346;-6.554;2023-04-15T00:48:56;2;2;
40371;PMS5003;28564;53.346;-6.554;2023-04-15T00:51:23;9;7;
40371;PMS5003;28564;53.346;-6.554;2023-04-15T00:53:51;6;4;
40371;PMS5003;28564;53.346;-6.554;2023-04-15T00:56:18;8;5;
40371;PMS5003;28564;53.346;-6.554;2023-04-15T00:58:47;8;8;
40371;PMS5003;28564;53.346;-6.554;2023-04-15T01:01:14;8;6;
40371;PMS5003;28564;53.346;-6.554;2023-04-15T01:03:42;8;5;
40371;PMS5003;28564;53.346;-6.554;2023-04-15T01:06:09;8;8;
40371;PMS5003;28564;53.346;-6.554;2023-04-15T01:08:36;10;5;
40371;PMS5003;28564;53.346;-6.554;2023-04-15T01:11:04;11;8;
40371;PMS5003;28564;53.346;-6.554;2023-04-15T01:13:32;10;6;
40371;PMS5003;28564;53.346;-6.554;2023-04-15T01:16:00;8;8;
40371;PMS5003;28564;53.346;-6.554;2023-04-15T01:18:28;9;9;
40371;PMS5003;28564;53.346;-6.554;2023-04-15T01:20:56;8;8;
40371;PMS5003;28564;53.346;-6.554;2023-04-15T01:23:23;8;6;
40371;PMS5003;28564;53.346;-6.554;2023-04-15T01:25:50;10;9;
40371;PMS5003;28564;53.346;-6.554;2023-04-15T01:28:19;11;8;
40371;PMS5003;28564;53.346;-6.554;2023-04-15T01:30:46;10;9;
40371;PMS5003;28564;53.346;-6.554;2023-04-15T01:33:13;9;9;
40371;PMS5003;28564;53.346;-6.554;2023-04-15T01:35:41;13;9;
40371;PMS5003;28564;53.346;-6.554;2023-04-15T01:38:09;9;8;
40371;PMS5003;28564;53.346;-6.554;2023-04-15T01:40:37;4;4;
40371;PMS5003;28564;53.346;-6.554;2023-04-15T01:43:04;8;8;
40371;PMS5003;28564;53.346;-6.554;2023-04-15T01:45:32;10;6;
40371;PMS5003;28564;53.346;-6.554;2023-04-15T01:47:59;8;8;
40371;PMS5003;28564;53.346;-6.554;2023-04-15T01:50:27;10;6;
40371;PMS5003;28564;53.346;-6.554;2023-04-15T01:52:54;5;5;
40371;PMS5003;28564;53.346;-6.554;2023-04-15T01:55:22;8;8;
40371;PMS5003;28564;53.346;-6.554;2023-04-15T01:57:49;8;6;
40371;PMS5003;28564;53.346;-6.554;2023-04-15T02:00:16;10;8;
40371;PMS5003;28564;53.346;-6.554;2023-04-15T02:02:44;9;8;
40371;PMS5003;28564;53.346;-6.554;2023-04-15T02:05:11;5;5;
40371;PMS5003;28564;53.346;-6.554;2023-04-15T02:07:39;5;5;
40371;PMS5003;28564;53.346;-6.554;2023-04-15T02:10:06;6;6;
40371;PMS5003;28564;53.346;-6.554;2023-04-15T02:12:33;4;4;
40371;PMS5003;28564;53.346;-6.554;2023-04-15T02:15:01;6;4;
40371;PMS5003;28564;53.346;-6.554;2023-04-15T02:17:28;5;5;
40371;PMS5003;28564;53.346;-6.554;2023-04-15T02:19:55;5;4;
40371;PMS5003;28564;53.346;-6.554;2023-04-15T02:22:23;6;4;
40371;PMS5003;28564;53.346;-6.554;2023-04-15T02:24:50;5;5;
40371;PMS5003;28564;53.346;-6.554;2023-04-15T02:27:17;5;5;
40371;PMS5003;28564;53.346;-6.554;2023-04-15T02:29:45;8;4;
40371;PMS5003;28564;53.346;-6.554;2023-04-15T02:32:12;4;4;
40371;PMS5003;28564;53.346;-6.554;2023-04-15T02:34:39;4;4;
40371;PMS5003;28564;53.346;-6.554;2023-04-15T02:37:07;7;4;
40371;PMS5003;28564;53.346;-6.554;2023-04-15T02:39:34;5;5;
40371;PMS5003;28564;53.346;-6.554;2023-04-15T02:42:02;6;6;
40371;PMS5003;28564;53.346;-6.554;2023-04-15T02:44:29;4;4;
40371;PMS5003;28564;53.346;-6.554;2023-04-15T02:46:57;5;4;
40371;PMS5003;28564;53.346;-6.554;2023-04-15T02:49:24;4;4;
40371;PMS5003;28564;53.346;-6.554;2023-04-15T02:51:52;4;4;
40371;PMS5003;28564;53.346;-6.554;2023-04-15T02:54:20;15;9;
40371;PMS5003;28564;53.346;-6.554;2023-04-15T02:56:47;9;4;
40371;PMS5003;28564;53.346;-6.554;2023-04-15T02:59:15;5;5;
40371;PMS5003;28564;53.346;-6.554;2023-04-15T03:01:42;14;7;
40371;PMS5003;28564;53.346;-6.554;2023-04-15T03:04:10;5;5;
40371;PMS5003;28564;53.346;-6.554;2023-04-15T03:06:37;7;5;
40371;PMS5003;28564;53.346;-6.554;2023-04-15T03:09:04;4;4;
40371;PMS5003;28564;53.346;-6.554;2023-04-15T03:11:32;7;5;
40371;PMS5003;28564;53.346;-6.554;2023-04-15T03:13:59;5;5;
40371;PMS5003;28564;53.346;-6.554;2023-04-15T03:16:27;7;7;
40371;PMS5003;28564;53.346;-6.554;2023-04-15T03:18:54;5;4;
40371;PMS5003;28564;53.346;-6.554;2023-04-15T03:21:21;4;4;
40371;PMS5003;28564;53.346;-6.554;2023-04-15T03:23:49;5;3;
40371;PMS5003;28564;53.346;-6.554;2023-04-15T03:26:25;4;4;
40371;PMS5003;28564;53.346;-6.554;2023-04-15T03:28:52;5;5;
40371;PMS5003;28564;53.346;-6.554;2023-04-15T03:31:20;4;4;
40371;PMS5003;28564;53.346;-6.554;2023-04-15T03:33:47;8;5;
40371;PMS5003;28564;53.346;-6.554;2023-04-15T03:36:15;4;4;
40371;PMS5003;28564;53.346;-6.554;2023-04-15T03:38:42;8;5;
40371;PMS5003;28564;53.346;-6.554;2023-04-15T03:41:09;7;5;
40371;PMS5003;28564;53.346;-6.554;2023-04-15T03:43:37;5;3;
40371;PMS5003;28564;53.346;-6.554;2023-04-15T03:46:04;5;5;
40371;PMS5003;28564;53.346;-6.554;2023-04-15T03:48:31;5;4;
40371;PMS5003;28564;53.346;-6.554;2023-04-15T03:50:59;4;4;
40371;PMS5003;28564;53.346;-6.554;2023-04-15T03:53:26;7;4;
40371;PMS5003;28564;53.346;-6.554;2023-04-15T03:55:54;7;7;
40371;PMS5003;28564;53.346;-6.554;2023-04-15T03:58:21;10;8;
40371;PMS5003;28564;53.346;-6.554;2023-04-15T04:00:48;9;8;
40371;PMS5003;28564;53.346;-6.554;2023-04-15T04:03:16;9;9;
40371;PMS5003;28564;53.346;-6.554;2023-04-15T04:05:43;10;8;
40371;PMS5003;28564;53.346;-6.554;2023-04-15T04:08:11;10;10;
40371;PMS5003;28564;53.346;-6.554;2023-04-15T04:10:38;5;5;
40371;PMS5003;28564;53.346;-6.554;2023-04-15T04:13:05;15;11;
40371;PMS5003;28564;53.346;-6.554;2023-04-15T04:15:33;5;5;
40371;PMS5003;28564;53.346;-6.554;2023-04-15T04:18:00;13;9;
40371;PMS5003;28564;53.346;-6.554;2023-04-15T04:20:28;4;3;
40371;PMS5003;28564;53.346;-6.554;2023-04-15T04:22:55;8;5;
40371;PMS5003;28564;53.346;-6.554;2023-04-15T04:25:23;9;5;
40371;PMS5003;28564;53.346;-6.554;2023-04-15T04:27:50;7;5;
40371;PMS5003;28564;53.346;-6.554;2023-04-15T04:30:17;4;4;
40371;PMS5003;28564;53.346;-6.554;2023-04-15T04:32:45;9;7;
40371;PMS5003;28564;53.346;-6.554;2023-04-15T04:35:12;9;4;
40371;PMS5003;28564;53.346;-6.554;2023-04-15T04:37:40;7;7;
40371;PMS5003;28564;53.346;-6.554;2023-04-15T04:40:08;3;3;
40371;PMS5003;28564;53.346;-6.554;2023-04-15T04:42:36;3;3;
40371;PMS5003;28564;53.346;-6.554;2023-04-15T04:45:03;4;4;
40371;PMS5003;28564;53.346;-6.554;2023-04-15T04:47:31;8;4;
40371;PMS5003;28564;53.346;-6.554;2023-04-15T04:49:59;4;3;
40371;PMS5003;28564;53.346;-6.554;2023-04-15T04:52:26;3;3;
40371;PMS5003;28564;53.346;-6.554;2023-04-15T04:54:54;7;3;
40371;PMS5003;28564;53.346;-6.554;2023-04-15T04:57:21;7;4;
40371;PMS5003;28564;53.346;-6.554;2023-04-15T04:59:48;4;4;
40371;PMS5003;28564;53.346;-6.554;2023-04-15T05:02:16;4;4;
40371;PMS5003;28564;53.346;-6.554;2023-04-15T05:04:43;7;5;
40371;PMS5003;28564;53.346;-6.554;2023-04-15T05:07:11;7;4;
40371;PMS5003;28564;53.346;-6.554;2023-04-15T05:09:38;4;4;
40371;PMS5003;28564;53.346;-6.554;2023-04-15T05:12:06;5;5;
40371;PMS5003;28564;53.346;-6.554;2023-04-15T05:14:33;7;5;
40371;PMS5003;28564;53.346;-6.554;2023-04-15T05:17:00;3;3;
40371;PMS5003;28564;53.346;-6.554;2023-04-15T05:19:28;3;3;
40371;PMS5003;28564;53.346;-6.554;2023-04-15T05:21:55;2;2;
40371;PMS5003;28564;53.346;-6.554;2023-04-15T05:24:23;4;4;
40371;PMS5003;28564;53.346;-6.554;2023-04-15T05:26:50;5;4;
40371;PMS5003;28564;53.346;-6.554;2023-04-15T05:29:18;4;4;
40371;PMS5003;28564;53.346;-6.554;2023-04-15T05:31:45;2;2;
40371;PMS5003;28564;53.346;-6.554;2023-04-15T05:34:13;3;3;
40371;PMS5003;28564;53.346;-6.554;2023-04-15T05:36:39;7;4;
40371;PMS5003;28564;53.346;-6.554;2023-04-15T05:39:07;4;4;
40371;PMS5003;28564;53.346;-6.554;2023-04-15T05:41:34;7;5;
40371;PMS5003;28564;53.346;-6.554;2023-04-15T05:44:02;3;3;
40371;PMS5003;28564;53.346;-6.554;2023-04-15T05:46:29;4;4;
40371;PMS5003;28564;53.346;-6.554;2023-04-15T05:48:56;5;5;
40371;PMS5003;28564;53.346;-6.554;2023-04-15T05:51:24;3;3;
40371;PMS5003;28564;53.346;-6.554;2023-04-15T05:53:51;4;3;
40371;PMS5003;28564;53.346;-6.554;2023-04-15T05:56:19;3;3;
40371;PMS5003;28564;53.346;-6.554;2023-04-15T05:58:47;4;4;
40371;PMS5003;28564;53.346;-6.554;2023-04-15T06:01:14;4;2;
40371;PMS5003;28564;53.346;-6.554;2023-04-15T06:03:41;7;4;
40371;PMS5003;28564;53.346;-6.554;2023-04-15T06:06:09;7;3;
40371;PMS5003;28564;53.346;-6.554;2023-04-15T06:08:36;2;2;
40371;PMS5003;28564;53.346;-6.554;2023-04-15T06:11:03;4;3;
40371;PMS5003;28564;53.346;-6.554;2023-04-15T06:13:31;7;4;
40371;PMS5003;28564;53.346;-6.554;2023-04-15T06:15:58;4;4;
40371;PMS5003;28564;53.346;-6.554;2023-04-15T06:18:26;4;3;
40371;PMS5003;28564;53.346;-6.554;2023-04-15T06:20:53;5;3;
40371;PMS5003;28564;53.346;-6.554;2023-04-15T06:23:20;3;2;
40371;PMS5003;28564;53.346;-6.554;2023-04-15T06:25:48;4;3;
40371;PMS5003;28564;53.346;-6.554;2023-04-15T06:28:15;4;4;
40371;PMS5003;28564;53.346;-6.554;2023-04-15T06:30:43;4;4;
40371;PMS5003;28564;53.346;-6.554;2023-04-15T06:33:10;3;3;
40371;PMS5003;28564;53.346;-6.554;2023-04-15T06:35:37;7;4;
40371;PMS5003;28564;53.346;-6.554;2023-04-15T06:38:05;4;4;
40371;PMS5003;28564;53.346;-6.554;2023-04-15T06:40:33;3;3;
40371;PMS5003;28564;53.346;-6.554;2023-04-15T06:43:00;4;4;
40371;PMS5003;28564;53.346;-6.554;2023-04-15T06:45:27;3;3;
40371;PMS5003;28564;53.346;-6.554;2023-04-15T06:47:54;3;2;
40371;PMS5003;28564;53.346;-6.554;2023-04-15T06:50:22;3;3;
40371;PMS5003;28564;53.346;-6.554;2023-04-15T06:52:49;2;2;
40371;PMS5003;28564;53.346;-6.554;2023-04-15T06:55:17;3;3;
40371;PMS5003;28564;53.346;-6.554;2023-04-15T06:57:44;3;3;
40371;PMS5003;28564;53.346;-6.554;2023-04-15T07:00:12;4;4;
40371;PMS5003;28564;53.346;-6.554;2023-04-15T07:02:40;4;4;
40371;PMS5003;28564;53.346;-6.554;2023-04-15T07:05:07;5;5;
40371;PMS5003;28564;53.346;-6.554;2023-04-15T07:07:34;5;5;
40371;PMS5003;28564;53.346;-6.554;2023-04-15T07:10:02;8;5;
40371;PMS5003;28564;53.346;-6.554;2023-04-15T07:12:29;3;3;
40371;PMS5003;28564;53.346;-6.554;2023-04-15T07:14:57;3;3;
40371;PMS5003;28564;53.346;-6.554;2023-04-15T07:17:24;5;5;
40371;PMS5003;28564;53.346;-6.554;2023-04-15T07:19:51;4;4;
40371;PMS5003;28564;53.346;-6.554;2023-04-15T07:22:19;4;4;
40371;PMS5003;28564;53.346;-6.554;2023-04-15T07:24:46;4;4;
40371;PMS5003;28564;53.346;-6.554;2023-04-15T07:27:13;4;3;
40371;PMS5003;28564;53.346;-6.554;2023-04-15T07:29:41;11;5;
40371;PMS5003;28564;53.346;-6.554;2023-04-15T07:32:08;4;4;
40371;PMS5003;28564;53.346;-6.554;2023-04-15T07:34:36;6;5;
40371;PMS5003;28564;53.346;-6.554;2023-04-15T07:37:03;6;4;
40371;PMS5003;28564;53.346;-6.554;2023-04-15T07:39:30;6;5;
40371;PMS5003;28564;53.346;-6.554;2023-04-15T07:41:58;4;4;
40371;PMS5003;28564;53.346;-6.554;2023-04-15T07:44:25;6;3;
40371;PMS5003;28564;53.346;-6.554;2023-04-15T07:46:52;5;4;
40371;PMS5003;28564;53.346;-6.554;2023-04-15T07:49:20;4;4;
40371;PMS5003;28564;53.346;-6.554;2023-04-15T07:51:47;5;4;
40371;PMS5003;28564;53.346;-6.554;2023-04-15T07:54:15;4;3;
40371;PMS5003;28564;53.346;-6.554;2023-04-15T07:56:42;4;4;
40371;PMS5003;28564;53.346;-6.554;2023-04-15T07:59:09;4;4;
40371;PMS5003;28564;53.346;-6.554;2023-04-15T08:01:37;6;3;
40371;PMS5003;28564;53.346;-6.554;2023-04-15T08:04:04;3;3;
40371;PMS5003;28564;53.346;-6.554;2023-04-15T08:06:31;5;4;
40371;PMS5003;28564;53.346;-6.554;2023-04-15T08:08:59;4;3;
40371;PMS5003;28564;53.346;-6.554;2023-04-15T08:11:26;7;4;
40371;PMS5003;28564;53.346;-6.554;2023-04-15T08:13:53;4;4;
40371;PMS5003;28564;53.346;-6.554;2023-04-15T08:16:22;4;3;
40371;PMS5003;28564;53.346;-6.554;2023-04-15T08:18:51;9;5;
40371;PMS5003;28564;53.346;-6.554;2023-04-15T08:21:19;4;3;
40371;PMS5003;28564;53.346;-6.554;2023-04-15T08:23:47;5;5;
40371;PMS5003;28564;53.346;-6.554;2023-04-15T08:26:16;2;2;
40371;PMS5003;28564;53.346;-6.554;2023-04-15T08:28:44;3;3;
40371;PMS5003;28564;53.346;-6.554;2023-04-15T08:31:12;3;3;
40371;PMS5003;28564;53.346;-6.554;2023-04-15T08:33:41;5;3;
40371;PMS5003;28564;53.346;-6.554;2023-04-15T08:36:08;3;3;
40371;PMS5003;28564;53.346;-6.554;2023-04-15T08:38:35;3;3;
40371;PMS5003;28564;53.346;-6.554;2023-04-15T08:41:03;3;3;
40371;PMS5003;28564;53.346;-6.554;2023-04-15T08:43:37;2;2;
40371;PMS5003;28564;53.346;-6.554;2023-04-15T08:46:09;4;3;
40371;PMS5003;28564;53.346;-6.554;2023-04-15T08:48:38;5;2;
40371;PMS5003;28564;53.346;-6.554;2023-04-15T08:51:06;4;3;
40371;PMS5003;28564;53.346;-6.554;2023-04-15T08:53:33;7;3;
40371;PMS5003;28564;53.346;-6.554;2023-04-15T08:56:01;4;4;
40371;PMS5003;28564;53.346;-6.554;2023-04-15T08:58:32;2;2;
40371;PMS5003;28564;53.346;-6.554;2023-04-15T09:03:50;4;2;
40371;PMS5003;28564;53.346;-6.554;2023-04-15T09:06:19;6;2;
40371;PMS5003;28564;53.346;-6.554;2023-04-15T09:08:46;5;3;
40371;PMS5003;28564;53.346;-6.554;2023-04-15T09:11:14;6;5;
40371;PMS5003;28564;53.346;-6.554;2023-04-15T09:13:41;6;5;
40371;PMS5003;28564;53.346;-6.554;2023-04-15T09:16:08;5;3;
40371;PMS5003;28564;53.346;-6.554;2023-04-15T09:18:37;3;2;
40371;PMS5003;28564;53.346;-6.554;2023-04-15T09:21:05;5;2;
40371;PMS5003;28564;53.346;-6.554;2023-04-15T09:23:34;1;1;
40371;PMS5003;28564;53.346;-6.554;2023-04-15T09:26:01;4;4;
40371;PMS5003;28564;53.346;-6.554;2023-04-15T09:28:29;1;1;
40371;PMS5003;28564;53.346;-6.554;2023-04-15T09:30:56;1;1;
40371;PMS5003;28564;53.346;-6.554;2023-04-15T09:33:24;2;1;
40371;PMS5003;28564;53.346;-6.554;2023-04-15T09:35:57;0;0;
40371;PMS5003;28564;53.346;-6.554;2023-04-15T09:38:27;1;1;
40371;PMS5003;28564;53.346;-6.554;2023-04-15T09:40:54;1;1;
40371;PMS5003;28564;53.346;-6.554;2023-04-15T09:43:21;4;4;
40371;PMS5003;28564;53.346;-6.554;2023-04-15T09:45:49;2;2;
40371;PMS5003;28564;53.346;-6.554;2023-04-15T09:48:18;1;1;
40371;PMS5003;28564;53.346;-6.554;2023-04-15T09:50:47;3;1;
40371;PMS5003;28564;53.346;-6.554;2023-04-15T09:53:15;1;1;
40371;PMS5003;28564;53.346;-6.554;2023-04-15T09:55:44;0;0;
40371;PMS5003;28564;53.346;-6.554;2023-04-15T09:58:16;1;0;
40371;PMS5003;28564;53.346;-6.554;2023-04-15T10:00:44;2;0;
40371;PMS5003;28564;53.346;-6.554;2023-04-15T10:03:14;1;1;
40371;PMS5003;28564;53.346;-6.554;2023-04-15T10:05:47;0;0;
40371;PMS5003;28564;53.346;-6.554;2023-04-15T10:08:16;1;1;
40371;PMS5003;28564;53.346;-6.554;2023-04-15T10:10:45;0;0;
40371;PMS5003;28564;53.346;-6.554;2023-04-15T10:13:15;0;0;
40371;PMS5003;28564;53.346;-6.554;2023-04-15T10:15:44;2;2;
40371;PMS5003;28564;53.346;-6.554;2023-04-15T10:18:17;2;2;
40371;PMS5003;28564;53.346;-6.554;2023-04-15T10:20:46;3;1;
40371;PMS5003;28564;53.346;-6.554;2023-04-15T10:23:14;1;1;
40371;PMS5003;28564;53.346;-6.554;2023-04-15T10:25:41;1;1;
40371;PMS5003;28564;53.346;-6.554;2023-04-15T10:28:09;2;0;
40371;PMS5003;28564;53.346;-6.554;2023-04-15T10:30:37;0;0;
40371;PMS5003;28564;53.346;-6.554;2023-04-15T10:33:04;1;0;
40371;PMS5003;28564;53.346;-6.554;2023-04-15T10:35:34;0;0;
40371;PMS5003;28564;53.346;-6.554;2023-04-15T10:38:07;1;1;
40371;PMS5003;28564;53.346;-6.554;2023-04-15T10:41:10;0;0;
40371;PMS5003;28564;53.346;-6.554;2023-04-15T10:43:38;3;2;
40371;PMS5003;28564;53.346;-6.554;2023-04-15T10:46:11;3;3;
40371;PMS5003;28564;53.346;-6.554;2023-04-15T10:48:38;2;1;
40371;PMS5003;28564;53.346;-6.554;2023-04-15T10:51:12;1;1;
40371;PMS5003;28564;53.346;-6.554;2023-04-15T10:53:40;1;1;
40371;PMS5003;28564;53.346;-6.554;2023-04-15T10:56:08;2;2;
40371;PMS5003;28564;53.346;-6.554;2023-04-15T10:58:43;5;2;
40371;PMS5003;28564;53.346;-6.554;2023-04-15T11:01:10;2;1;
40371;PMS5003;28564;53.346;-6.554;2023-04-15T11:03:39;1;1;
40371;PMS5003;28564;53.346;-6.554;2023-04-15T11:06:08;3;1;
40371;PMS5003;28564;53.346;-6.554;2023-04-15T11:09:07;2;2;
40371;PMS5003;28564;53.346;-6.554;2023-04-15T11:12:11;3;2;
40371;PMS5003;28564;53.346;-6.554;2023-04-15T11:14:39;2;1;
40371;PMS5003;28564;53.346;-6.554;2023-04-15T11:17:07;2;2;
40371;PMS5003;28564;53.346;-6.554;2023-04-15T11:19:35;2;2;
40371;PMS5003;28564;53.346;-6.554;2023-04-15T11:22:07;2;1;
40371;PMS5003;28564;53.346;-6.554;2023-04-15T11:24:35;1;1;
40371;PMS5003;28564;53.346;-6.554;2023-04-15T11:27:03;1;1;
40371;PMS5003;28564;53.346;-6.554;2023-04-15T11:29:30;1;1;
40371;PMS5003;28564;53.346;-6.554;2023-04-15T11:32:03;2;1;
40371;PMS5003;28564;53.346;-6.554;2023-04-15T11:34:31;0;0;
40371;PMS5003;28564;53.346;-6.554;2023-04-15T11:36:59;0;0;
40371;PMS5003;28564;53.346;-6.554;2023-04-15T11:39:29;1;1;
40371;PMS5003;28564;53.346;-6.554;2023-04-15T11:41:57;3;1;
40371;PMS5003;28564;53.346;-6.554;2023-04-15T11:44:24;1;1;
40371;PMS5003;28564;53.346;-6.554;2023-04-15T11:46:53;1;1;
40371;PMS5003;28564;53.346;-6.554;2023-04-15T11:49:28;0;0;
40371;PMS5003;28564;53.346;-6.554;2023-04-15T11:51:55;1;1;
40371;PMS5003;28564;53.346;-6.554;2023-04-15T11:54:22;0;0;
40371;PMS5003;28564;53.346;-6.554;2023-04-15T11:56:49;0;0;
40371;PMS5003;28564;53.346;-6.554;2023-04-15T11:59:17;3;1;
40371;PMS5003;28564;53.346;-6.554;2023-04-15T12:01:44;1;1;
40371;PMS5003;28564;53.346;-6.554;2023-04-15T12:04:12;0;0;
40371;PMS5003;28564;53.346;-6.554;2023-04-15T12:06:39;3;1;
40371;PMS5003;28564;53.346;-6.554;2023-04-15T12:09:07;1;1;
40371;PMS5003;28564;53.346;-6.554;2023-04-15T12:11:36;1;1;
40371;PMS5003;28564;53.346;-6.554;2023-04-15T12:14:06;3;2;
40371;PMS5003;28564;53.346;-6.554;2023-04-15T12:16:36;0;0;
40371;PMS5003;28564;53.346;-6.554;2023-04-15T12:19:05;1;1;
40371;PMS5003;28564;53.346;-6.554;2023-04-15T12:21:35;0;0;
40371;PMS5003;28564;53.346;-6.554;2023-04-15T12:24:04;0;0;
40371;PMS5003;28564;53.346;-6.554;2023-04-15T12:26:34;0;0;
40371;PMS5003;28564;53.346;-6.554;2023-04-15T12:29:04;1;0;
40371;PMS5003;28564;53.346;-6.554;2023-04-15T12:31:33;2;0;
40371;PMS5003;28564;53.346;-6.554;2023-04-15T12:34:01;0;0;
40371;PMS5003;28564;53.346;-6.554;2023-04-15T12:36:29;0;0;
40371;PMS5003;28564;53.346;-6.554;2023-04-15T12:38:56;1;1;
40371;PMS5003;28564;53.346;-6.554;2023-04-15T12:41:23;1;1;
40371;PMS5003;28564;53.346;-6.554;2023-04-15T12:43:50;1;1;
40371;PMS5003;28564;53.346;-6.554;2023-04-15T12:46:17;0;0;
40371;PMS5003;28564;53.346;-6.554;2023-04-15T12:48:44;1;0;
40371;PMS5003;28564;53.346;-6.554;2023-04-15T12:51:12;2;1;
40371;PMS5003;28564;53.346;-6.554;2023-04-15T12:53:39;0;0;
40371;PMS5003;28564;53.346;-6.554;2023-04-15T12:56:06;1;1;
40371;PMS5003;28564;53.346;-6.554;2023-04-15T12:58:33;1;1;
40371;PMS5003;28564;53.346;-6.554;2023-04-15T13:01:00;0;0;
40371;PMS5003;28564;53.346;-6.554;2023-04-15T13:03:28;2;0;
40371;PMS5003;28564;53.346;-6.554;2023-04-15T13:05:55;1;1;
40371;PMS5003;28564;53.346;-6.554;2023-04-15T13:08:22;1;1;
40371;PMS5003;28564;53.346;-6.554;2023-04-15T13:10:49;1;1;
40371;PMS5003;28564;53.346;-6.554;2023-04-15T13:13:16;0;0;
40371;PMS5003;28564;53.346;-6.554;2023-04-15T13:15:43;1;1;
40371;PMS5003;28564;53.346;-6.554;2023-04-15T13:18:10;1;1;
40371;PMS5003;28564;53.346;-6.554;2023-04-15T13:20:37;0;0;
40371;PMS5003;28564;53.346;-6.554;2023-04-15T13:23:04;1;0;
40371;PMS5003;28564;53.346;-6.554;2023-04-15T13:25:31;0;0;
40371;PMS5003;28564;53.346;-6.554;2023-04-15T13:27:58;0;0;
40371;PMS5003;28564;53.346;-6.554;2023-04-15T13:30:26;2;1;
40371;PMS5003;28564;53.346;-6.554;2023-04-15T13:32:53;2;0;
40371;PMS5003;28564;53.346;-6.554;2023-04-15T13:35:20;0;0;
40371;PMS5003;28564;53.346;-6.554;2023-04-15T13:37:47;1;1;
40371;PMS5003;28564;53.346;-6.554;2023-04-15T13:40:14;0;0;
40371;PMS5003;28564;53.346;-6.554;2023-04-15T13:42:42;3;0;
40371;PMS5003;28564;53.346;-6.554;2023-04-15T13:45:09;0;0;
40371;PMS5003;28564;53.346;-6.554;2023-04-15T13:47:37;1;1;
40371;PMS5003;28564;53.346;-6.554;2023-04-15T13:50:04;0;0;
40371;PMS5003;28564;53.346;-6.554;2023-04-15T13:52:31;0;0;
40371;PMS5003;28564;53.346;-6.554;2023-04-15T13:54:58;0;0;
40371;PMS5003;28564;53.346;-6.554;2023-04-15T13:57:25;0;0;
40371;PMS5003;28564;53.346;-6.554;2023-04-15T13:59:53;0;0;
40371;PMS5003;28564;53.346;-6.554;2023-04-15T14:02:20;1;0;
40371;PMS5003;28564;53.346;-6.554;2023-04-15T14:04:48;0;0;
40371;PMS5003;28564;53.346;-6.554;2023-04-15T14:07:15;1;0;
40371;PMS5003;28564;53.346;-6.554;2023-04-15T14:09:42;0;0;
40371;PMS5003;28564;53.346;-6.554;2023-04-15T14:12:09;2;1;
40371;PMS5003;28564;53.346;-6.554;2023-04-15T14:14:36;2;0;
40371;PMS5003;28564;53.346;-6.554;2023-04-15T14:17:03;1;1;
40371;PMS5003;28564;53.346;-6.554;2023-04-15T14:19:31;2;0;
40371;PMS5003;28564;53.346;-6.554;2023-04-15T14:21:59;0;0;
40371;PMS5003;28564;53.346;-6.554;2023-04-15T14:24:27;1;1;
40371;PMS5003;28564;53.346;-6.554;2023-04-15T14:26:53;0;0;
40371;PMS5003;28564;53.346;-6.554;2023-04-15T14:29:21;0;0;
40371;PMS5003;28564;53.346;-6.554;2023-04-15T14:31:48;0;0;
40371;PMS5003;28564;53.346;-6.554;2023-04-15T14:34:15;1;0;
40371;PMS5003;28564;53.346;-6.554;2023-04-15T14:36:43;0;0;
40371;PMS5003;28564;53.346;-6.554;2023-04-15T14:39:10;4;2;
40371;PMS5003;28564;53.346;-6.554;2023-04-15T14:41:39;0;0;
40371;PMS5003;28564;53.346;-6.554;2023-04-15T14:44:06;0;0;
40371;PMS5003;28564;53.346;-6.554;2023-04-15T14:46:34;0;0;
40371;PMS5003;28564;53.346;-6.554;2023-04-15T14:49:01;0;0;
40371;PMS5003;28564;53.346;-6.554;2023-04-15T14:51:28;0;0;
40371;PMS5003;28564;53.346;-6.554;2023-04-15T14:53:55;1;1;
40371;PMS5003;28564;53.346;-6.554;2023-04-15T14:56:23;0;0;
40371;PMS5003;28564;53.346;-6.554;2023-04-15T14:58:50;0;0;
40371;PMS5003;28564;53.346;-6.554;2023-04-15T15:01:17;0;0;
40371;PMS5003;28564;53.346;-6.554;2023-04-15T15:03:44;1;1;
40371;PMS5003;28564;53.346;-6.554;2023-04-15T15:06:11;1;1;
40371;PMS5003;28564;53.346;-6.554;2023-04-15T15:08:38;3;1;
40371;PMS5003;28564;53.346;-6.554;2023-04-15T15:11:05;3;1;
40371;PMS5003;28564;53.346;-6.554;2023-04-15T15:13:32;1;0;
40371;PMS5003;28564;53.346;-6.554;2023-04-15T15:15:59;2;0;
40371;PMS5003;28564;53.346;-6.554;2023-04-15T15:18:27;1;1;
40371;PMS5003;28564;53.346;-6.554;2023-04-15T15:20:54;1;1;
40371;PMS5003;28564;53.346;-6.554;2023-04-15T15:23:21;0;0;
40371;PMS5003;28564;53.346;-6.554;2023-04-15T15:25:48;1;1;
40371;PMS5003;28564;53.346;-6.554;2023-04-15T15:28:15;1;1;
40371;PMS5003;28564;53.346;-6.554;2023-04-15T15:30:42;0;0;
40371;PMS5003;28564;53.346;-6.554;2023-04-15T15:33:09;0;0;
40371;PMS5003;28564;53.346;-6.554;2023-04-15T15:35:36;1;1;
40371;PMS5003;28564;53.346;-6.554;2023-04-15T15:38:04;1;1;
40371;PMS5003;28564;53.346;-6.554;2023-04-15T15:40:31;1;1;
40371;PMS5003;28564;53.346;-6.554;2023-04-15T15:42:58;0;0;
40371;PMS5003;28564;53.346;-6.554;2023-04-15T15:45:26;1;1;
40371;PMS5003;28564;53.346;-6.554;2023-04-15T15:47:53;1;1;
40371;PMS5003;28564;53.346;-6.554;2023-04-15T15:50:20;1;1;
40371;PMS5003;28564;53.346;-6.554;2023-04-15T15:52:47;1;1;
40371;PMS5003;28564;53.346;-6.554;2023-04-15T15:55:14;2;2;
40371;PMS5003;28564;53.346;-6.554;2023-04-15T15:57:42;5;5;
40371;PMS5003;28564;53.346;-6.554;2023-04-15T16:00:09;4;4;
40371;PMS5003;28564;53.346;-6.554;2023-04-15T16:02:37;1;1;
40371;PMS5003;28564;53.346;-6.554;2023-04-15T16:05:05;0;0;
40371;PMS5003;28564;53.346;-6.554;2023-04-15T16:07:33;3;3;
40371;PMS5003;28564;53.346;-6.554;2023-04-15T16:10:00;1;1;
40371;PMS5003;28564;53.346;-6.554;2023-04-15T16:12:27;1;1;
40371;PMS5003;28564;53.346;-6.554;2023-04-15T16:14:54;1;1;
40371;PMS5003;28564;53.346;-6.554;2023-04-15T16:17:21;1;1;
40371;PMS5003;28564;53.346;-6.554;2023-04-15T16:19:49;2;1;
40371;PMS5003;28564;53.346;-6.554;2023-04-15T16:22:16;1;1;
40371;PMS5003;28564;53.346;-6.554;2023-04-15T16:24:43;3;1;
40371;PMS5003;28564;53.346;-6.554;2023-04-15T16:27:10;0;0;
40371;PMS5003;28564;53.346;-6.554;2023-04-15T16:29:37;2;1;
40371;PMS5003;28564;53.346;-6.554;2023-04-15T16:32:04;2;0;
40371;PMS5003;28564;53.346;-6.554;2023-04-15T16:34:31;2;1;
40371;PMS5003;28564;53.346;-6.554;2023-04-15T16:36:59;2;2;
40371;PMS5003;28564;53.346;-6.554;2023-04-15T16:39:25;1;1;
40371;PMS5003;28564;53.346;-6.554;2023-04-15T16:41:53;0;0;